Alyeska Resort
Hourly Weather - Base Weather Site
ALY_BASE_HR 2/20/2018
CLICK TO VIEW GRAPH!!

        DATE  TIME   Air  BATT   H2o   H2o   Rel
                    Temp  Volt  Inch Since  Hum%
                      F   AVG   1HR  0600   AVG

   2/20/2018 06:00    25 14.11  0.00  0.00    94
   2/20/2018 05:00    25 14.12  0.00  0.00    94
   2/20/2018 04:00    24 14.13  0.00  0.00    94
   2/20/2018 03:00    24 14.14  0.00  0.00    94
   2/20/2018 02:00    23 14.15  0.00  0.00    94
   2/20/2018 01:00    23 14.15  0.00  0.00    93
   2/19/2018 24:00    23 14.15  0.00  0.00    93
   2/19/2018 23:00    23 14.13  0.00  0.00    93
   2/19/2018 22:00    23 14.13  0.00  0.00    90
   2/19/2018 21:00    24 14.11  0.00  0.00    88
   2/19/2018 20:00    25 14.08  0.00  0.00    89
   2/19/2018 19:00    26 14.04  0.00  0.00    88
   2/19/2018 18:00    29 13.98  0.00  0.00    85
   2/19/2018 17:00    31 13.99  0.00  0.00    84
   2/19/2018 16:00    31 13.96  0.00  0.00    81
   2/19/2018 15:00    32 13.95  0.00  0.00    73
   2/19/2018 14:00    32 13.99  0.00  0.00    80
   2/19/2018 13:00    30 14.03  0.00  0.00    85
   2/19/2018 12:00    30 14.05  0.00  0.00    87
   2/19/2018 11:00    28 14.06  0.00  0.00    91
   2/19/2018 10:00    27 14.07  0.00  0.00    93
   2/19/2018 09:00    27 14.07  0.00  0.00    94
   2/19/2018 08:00    27 14.07  0.00  0.00    94
   2/19/2018 07:00    27 14.07  0.00  0.00    93


CLICK TO VIEW GRAPH!!